KRNT - Renton, Washington, USA
Distance from station: W 21mi, 33km
Updated: Wed, 08-Jul-2020 6:53pm PDT

 Wind from NW
Wind: NW 5 mph , 7 km/h
Temperature: 72°F , 22°C
Dew Point: 50°F , 10°C
Humidity: 47%
Barometer: 30.02 inHg , 1016.6 hPa
Visibility: 10 miles , 16 km
Cloud details: 5500 ft
2020/07/09 01:53 KRNT 090153Z 31004KT 10SM FEW055 22/10 A3002 RMK AO2 SLP169 T02220100
KBFI - Seattle/Boeing, Washington, USA
Distance from station: W 25mi, 41km
Updated: Wed, 08-Jul-2020 6:53pm PDT

 Wind from NW
Wind: NW 6 mph , 9 km/h
Temperature: 72°F , 22°C
Dew Point: 50°F , 10°C
Humidity: 47%
Barometer: 30.02 inHg , 1016.6 hPa
Visibility: 10 miles , 16 km
Cloud details: 4000 ft
25000 ft
2020/07/09 01:53 KBFI 090153Z 31005KT 10SM FEW040 BKN250 22/10 A3002 RMK AO2 SLP164 T02220100
 
KSEA - Seattle/Metro, Washington, USA
Distance from station: W 25mi, 41km
Updated: Wed, 08-Jul-2020 6:53pm PDT

 Wind from SW
Wind: SW 6 mph , 9 km/h
Temperature: 72°F , 22°C
Dew Point: 52°F , 11°C
Humidity: 50%
Barometer: 30.03 inHg , 1016.9 hPa
Visibility: 10 miles , 16 km
Cloud details: 3500 ft
25000 ft
2020/07/09 01:53 KSEA 090153Z 23005KT 10SM SCT035 BKN250 22/11 A3003 RMK AO2 SLP174 T02220106
KSMP - Stampede Pass, Washington, USA
Distance from station: SE 26mi, 41km
Updated: Wed, 08-Jul-2020 7:35pm PDT

 Wind from varies
Wind: varies 7 mph , 11 km/h
Temperature: 55°F , 13°C
Dew Point: 46°F , 8°C
Humidity: 72%
Barometer: 30.07 inHg , 1018.3 hPa
Visibility: 10 miles , 16 km
Cloud details: 2200 ft
2020/07/09 02:35 KSMP 090235Z AUTO VRB06KT 10SM SCT022 13/08 A3007 RMK AO2 T01330083
 
KPLU - Puyallup/Thun, Washington, USA
Distance from station: SW 36mi, 59km
Updated: Wed, 08-Jul-2020 7:35pm PDT

 Wind from W
Wind: W 3 mph , 6 km/h
Temperature: 70°F , 21°C
Dew Point: 52°F , 11°C
Humidity: 53%
Barometer: 30.03 inHg , 1016.9 hPa
Visibility: 10 miles , 16 km
Cloud details: 5000 ft
2020/07/09 02:35 KPLU 090235Z AUTO 28003KT 10SM OVC050 21/11 A3003 RMK AO2
KPAE - Everett, Washington, USA
Distance from station: NW 37mi, 60km
Updated: Wed, 08-Jul-2020 6:53pm PDT

 Wind from varies
Wind: varies 5 mph , 7 km/h
Temperature: 66°F , 19°C
Dew Point: 54°F , 12°C
Humidity: 64%
Barometer: 30.05 inHg , 1017.6 hPa
Visibility: 10 miles , 16 km
2020/07/09 01:53 KPAE 090153Z VRB04KT 10SM CLR 19/12 A3005 RMK AO2 SLP173 T01940122
 
KTIW - Tacoma, Washington, USA
Distance from station: WSW 41mi, 66km
Updated: Wed, 08-Jul-2020 6:53pm PDT

 Wind from varies
Wind: varies 5 mph , 7 km/h
Temperature: 68°F , 20°C
Dew Point: 50°F , 10°C
Humidity: 53%
Barometer: 30.03 inHg , 1016.9 hPa
Visibility: 10 miles , 16 km
2020/07/09 01:53 KTIW 090153Z VRB04KT 10SM CLR 20/10 A3003 RMK AO2 SLP169 T02000100
KTCM - Tacoma/Mc Chord, Washington, USA
Distance from station: SW 42mi, 67km
Updated: Wed, 08-Jul-2020 6:58pm PDT

 Wind from NW
Wind: NW 9 mph , 15 km/h
Temperature: 72°F , 22°C
Dew Point: 50°F , 10°C
Humidity: 47%
Barometer: 30.03 inHg , 1016.9 hPa
Visibility: 10 miles , 16 km
Cloud details: 4900 ft
2020/07/09 01:58 KTCM 090158Z AUTO 31008KT 10SM BKN049 22/10 A3003 RMK AO2 SLP172 T02160095 $
 
KPWT - Bremerton Ntnl, Washington, USA
Distance from station: W 45mi, 73km
Updated: Wed, 08-Jul-2020 6:56pm PDT

 Wind from S
Wind: S 3 mph , 6 km/h
Temperature: 66°F , 19°C
Dew Point: 54°F , 12°C
Humidity: 64%
Barometer: 30.04 inHg , 1017.3 hPa
Visibility: 10 miles , 16 km
Cloud details: 5000 ft
2020/07/09 01:56 KPWT 090156Z AUTO 18003KT 10SM OVC050 19/12 A3004 RMK AO2 SLP176 T01940122
KGRF - Fort Lewis/Gray, Washington, USA
Distance from station: SW 48mi, 77km
Updated: Wed, 08-Jul-2020 6:58pm PDT

 Wind from WSW
Wind: WSW 6 mph , 9 km/h
Temperature: 70°F , 21°C
Dew Point: 57°F , 14°C
Humidity: 64%
Barometer: 30.03 inHg , 1016.9 hPa
Visibility: 10 miles , 16 km
Cloud details: 5000 ft
2020/07/09 01:58 KGRF 090158Z AUTO 25005KT 10SM BKN050 21/14 A3003 RMK AO2 SLP172 T02110140 TSNO $
 
KAWO - Arlington Muni, Washington, USA
Distance from station: NNW 50mi, 80km
Updated: Wed, 08-Jul-2020 6:56pm PDT

 Wind from NW
Wind: NW 9 mph , 15 km/h
Temperature: 70°F , 21°C
Dew Point: 55°F , 13°C
Humidity: 60%
Barometer: 30.03 inHg , 1016.9 hPa
Visibility: 10 miles , 16 km
2020/07/09 01:56 KAWO 090156Z AUTO 32008KT 10SM CLR 21/13 A3003 RMK AO2 SLP173 T02060128